Latest Coastal Weather Observations for St Helens

IDT60701

Issued at 3:51 am EST Monday 6 July 2015 (issued every 10 minutes, with the page automatically refreshed every 10 minutes)

About coastal observations | Map of coastal stations | Coastal observations for TAS | Marine services | Other Formats
Station Details ID: 092120 Name: ST HELENS AERODROME Lat: -41.34 Lon: 148.28 Height: 48.0 m
Data from the previous 72 hours. | See also: Recent months at St Helens
Date/Time
EST
Temp

°C
Wind Pressure Rain
since 9am
mm
Weather Cloud Vis
km
Sea
Height
m
Swell
Dir
 
Speed
knots
Gust
knots
hPa Trend Height
m
Period
s
Dir
06/03:30am 7.3 SW 2 6 1013.7 - 16.4 - Cloudy 10 - - - -
06/03:08am 7.4 WNW 3 4 1014.0 - 15.4 - Partly cloudy 10 - - - -
06/03:00am 7.3 W 3 5 1014.0 - 15.0 - Cloudy 10 - - - -
06/02:30am 7.2 S 5 8 1013.9 - 14.2 - Partly cloudy 10 - - - -
06/02:00am 7.2 S 6 9 1013.8 - 13.4 - Partly cloudy 10 - - - -
06/01:30am 7.2 S 4 7 1014.1 - 12.4 - Partly cloudy 10 - - - -
06/01:00am 7.2 SW 3 6 1014.2 - 11.2 - Partly cloudy 9 - - - -
06/12:30am 7.2 S 7 11 1014.3 - 10.0 - Partly cloudy 10 - - - -
06/12:00am 7.2 S 6 9 1014.6 - 9.0 - Partly cloudy 10 - - - -
 
Date/Time
EST
Temp

°C
Wind Pressure Rain
since 9am
mm
Weather Cloud Vis
km
Sea
Height
m
Swell
Dir
 
Speed
knots
Gust
knots
hPa Trend Height
m
Period
s
Dir
05/11:30pm 7.3 S 5 8 1014.7 - 7.4 - Partly cloudy 9 - - - -
05/11:00pm 7.6 S 5 8 1014.8 - 5.4 - Partly cloudy 10 - - - -
05/10:30pm 7.8 S 4 6 1014.7 - 4.6 - Partly cloudy 10 - - - -
05/10:00pm 8.0 S 4 6 1014.7 - 4.2 - Partly cloudy 10 - - - -
05/09:30pm 8.1 S 3 5 1014.7 - 3.8 - Partly cloudy 10 - - - -
05/09:00pm 8.3 SSE 2 3 1014.8 - 3.6 - Cloudy 10 - - - -
05/08:30pm 8.6 S 4 7 1014.5 - 3.6 - Partly cloudy 10 - - - -
05/08:00pm 8.5 S 3 5 1014.6 - 3.4 - Partly cloudy 10 - - - -
05/07:30pm 8.6 CALM 0 0 1014.5 - 3.4 - Cloudy 10 - - - -
05/07:00pm 8.6 S 3 4 1014.4 - 3.4 - Partly cloudy 10 - - - -
05/06:30pm 8.6 SSW 1 3 1014.1 - 3.4 - Cloudy 10 - - - -
05/06:00pm 8.7 SW 2 3 1014.0 - 3.4 - Mostly cloudy 10 - - - -
05/05:30pm 8.9 CALM 0 0 1013.8 - 3.4 - Cloudy 10 - - - -
05/05:00pm 8.8 SSW 3 4 1013.6 - 3.4 - Cloudy 10 - - - -
05/04:30pm 8.9 S 4 6 1013.6 - 3.4 - Cloudy 10 - - - -
05/04:00pm 9.0 S 4 5 1013.3 - 3.4 - Partly cloudy 10 - - - -
05/03:30pm 9.0 CALM 0 2 1013.2 - 3.4 - Partly cloudy 10 - - - -
05/03:00pm 9.1 SSW 3 5 1013.1 - 3.2 - Cloudy 10 - - - -
05/02:30pm 9.1 S 4 7 1013.0 - 3.2 - Partly cloudy 10 - - - -
05/02:00pm 9.2 S 3 5 1013.2 - 3.0 - Partly cloudy 10 - - - -
05/01:30pm 9.1 CALM 0 0 1013.2 - 3.0 - Partly cloudy 10 - - - -
05/01:26pm 8.9 CALM 0 3 1013.2 - 3.0 - Partly cloudy 10 - - - -
05/01:00pm 8.7 CALM 0 0 1013.2 - 3.0 - Partly cloudy 10 - - - -
05/12:45pm 8.4 SW 1 3 1013.3 - 3.0 - Partly cloudy 10 - - - -
05/12:30pm 8.2 S 3 4 1013.4 - 2.8 - Cloudy 10 - - - -
05/12:00pm 8.2 CALM 0 0 1013.8 - 1.8 - Cloudy 10 - - - -
05/11:30am 8.0 CALM 0 0 1014.1 - 1.6 - Partly cloudy 10 - - - -
05/11:00am 7.7 CALM 0 0 1014.5 - 1.4 - Partly cloudy 10 - - - -
05/10:30am 7.6 CALM 0 0 1014.8 - 1.0 - Cloudy 10 - - - -
05/10:00am 7.9 SSE 3 5 1014.7 - 0.4 - Cloudy 10 - - - -
05/09:30am 8.4 CALM 0 0 1014.7 - 0.0 - Partly cloudy 10 - - - -
05/09:00am 9.8 SW 3 5 1014.3 - 0.0 Rain Cloudy 15 - - - -
05/08:30am 8.9 CALM 0 0 1014.3 - 0.0 - Partly cloudy 10 - - - -
05/08:00am 9.3 SSE 1 3 1014.2 - 0.0 - Partly cloudy 10 - - - -
05/07:30am 9.2 WSW 4 6 1014.2 - 0.0 - Partly cloudy 10 - - - -
05/07:00am 9.1 WSW 3 5 1014.1 - 0.0 - Cloudy 10 - - - -
05/06:30am 8.4 CALM 0 0 1014.2 - 0.0 - Partly cloudy 10 - - - -
05/06:00am 8.6 CALM 0 0 1014.0 - 0.0 - Cloudy 10 - - - -
05/05:30am 8.9 CALM 0 1 1014.0 - 0.0 - Cloudy 10 - - - -
05/05:00am 9.1 SE 1 3 1013.8 - 0.0 - Partly cloudy 10 - - - -
05/04:30am 9.4 CALM 0 0 1013.7 - 0.0 - Partly cloudy 10 - - - -
05/04:00am 9.2 NNW 4 5 1013.6 - 0.0 - Cloudy 10 - - - -
05/03:30am 9.1 NW 5 9 1013.8 - 0.0 - Cloudy 10 - - - -
05/03:00am 8.7 WNW 5 6 1013.9 - 0.0 - Mostly cloudy 10 - - - -
05/02:30am 8.5 NNW 4 6 1014.3 - 0.0 - Cloudy 10 - - - -
05/02:00am 8.5 NW 3 4 1014.5 - 0.0 - Cloudy 10 - - - -
05/01:30am 8.4 NNW 5 6 1014.1 - 0.0 - Cloudy 10 - - - -
05/01:00am 7.9 NNW 4 6 1014.3 - 0.0 - Cloudy 10 - - - -
05/12:30am 9.1 W 4 5 1014.3 - 0.0 - Partly cloudy 10 - - - -
05/12:00am 8.6 NNW 5 6 1014.5 - 0.0 - Partly cloudy 10 - - - -
 
Date/Time
EST
Temp

°C
Wind Pressure Rain
since 9am
mm
Weather Cloud Vis
km
Sea
Height
m
Swell
Dir
 
Speed
knots
Gust
knots
hPa Trend Height
m
Period
s
Dir
04/11:30pm 8.9 NNW 2 4 1014.5 - 0.0 - - 10 - - - -
04/11:00pm 8.8 NNW 3 4 1014.5 - 0.0 - Partly cloudy 10 - - - -
04/10:30pm 9.6 NNW 4 6 1014.4 - 0.0 - Cloudy 10 - - - -
04/10:00pm 10.0 NNW 4 5 1014.5 - 0.0 - Cloudy 10 - - - -
04/09:30pm 10.5 NW 3 5 1014.4 - 0.0 - Cloudy 10 - - - -
04/09:00pm 10.6 WNW 2 5 1014.5 - 0.0 - Cloudy 10 - - - -
04/08:30pm 10.6 W 4 6 1014.4 - 0.0 - Cloudy 10 - - - -
04/08:00pm 10.9 W 4 6 1014.2 - 0.0 - Partly cloudy 10 - - - -
04/07:30pm 10.6 W 4 6 1014.0 - 0.0 - - 10 - - - -
04/07:00pm 10.8 NW 3 5 1013.6 - 0.0 - - 10 - - - -
04/06:30pm 11.3 WSW 5 9 1013.3 - 0.0 - - 10 - - - -
04/06:00pm 11.7 W 5 7 1013.1 - 0.0 - - 10 - - - -
04/05:30pm 11.8 W 4 8 1012.7 - 0.0 - - 10 - - - -
04/05:00pm 12.8 NW 6 8 1012.5 - 0.0 - - 10 - - - -
04/04:30pm 13.7 NW 7 11 1012.3 - 0.0 - - 10 - - - -
04/04:00pm 15.1 WNW 6 11 1012.2 - 0.0 - - 10 - - - -
04/03:30pm 15.0 NW 7 14 1011.9 - 0.0 - - 10 - - - -
04/03:00pm 15.9 NW 7 11 1011.7 - 0.0 - - 10 - - - -
04/02:30pm 15.9 NW 8 13 1011.6 - 0.0 - - 10 - - - -
04/02:00pm 15.7 NW 8 12 1011.4 - 0.0 - Partly cloudy 10 - - - -
04/01:30pm 15.9 WNW 7 13 1011.4 - 0.0 - - 10 - - - -
04/01:00pm 15.8 WNW 8 14 1011.5 - 0.0 - - 10 - - - -
04/12:30pm 14.3 W 6 11 1011.8 - 0.0 - - 10 - - - -
04/12:00pm 14.5 NNW 6 11 1012.0 - 0.0 - - 10 - - - -
04/11:30am 13.1 N 7 11 1012.3 - 0.0 - - 10 - - - -
04/11:00am 13.3 NNW 7 11 1012.7 - 0.0 - Partly cloudy 10 - - - -
04/10:30am 12.8 NW 7 11 1012.9 - 0.0 - Partly cloudy 10 - - - -
04/10:00am 12.9 NNW 5 8 1012.9 - 0.0 - Cloudy 10 - - - -
04/09:30am 12.9 NNW 6 11 1012.7 - 0.0 - Cloudy 10 - - - -
04/09:00am 12.6 NNW 7 11 1012.5 - 0.2 Fine Mostly cloudy 25 - - - -
04/08:30am 12.0 NNE 4 8 1012.5 - 0.2 - Partly cloudy 10 - - - -
04/08:00am 11.8 N 7 10 1012.4 - 0.2 - Partly cloudy 10 - - - -
04/07:30am 11.6 N 7 11 1012.5 - 0.2 - Partly cloudy 10 - - - -
04/07:00am 11.4 WNW 8 14 1012.6 - 0.2 - Partly cloudy 10 - - - -
04/06:30am 10.9 W 9 16 1012.3 - 0.2 - - 10 - - - -
04/06:00am 10.2 W 9 16 1012.2 - 0.2 - - 10 - - - -
04/05:30am 10.2 NW 13 21 1012.3 - 0.2 - - 10 - - - -
04/05:05am 10.3 NW 15 27 1012.5 - 0.2 - - 10 - - - -
04/05:00am 9.7 NW 13 19 1012.6 - 0.2 - - 10 - - - -
04/04:30am 10.4 NW 14 21 1012.9 - 0.2 - Partly cloudy 10 - - - -
04/04:00am 10.5 NW 13 21 1013.1 - 0.2 - - 10 - - - -
04/03:30am 10.0 NW 13 19 1013.7 - 0.2 - Partly cloudy 10 - - - -
04/03:00am 9.7 NW 10 16 1014.1 - 0.2 - Partly cloudy 10 - - - -
04/02:30am 9.6 NW 9 15 1014.5 - 0.2 - - 10 - - - -
04/02:00am 9.5 W 8 15 1014.5 - 0.2 - - 10 - - - -
04/01:30am 9.5 W 9 16 1014.3 - 0.2 - - 10 - - - -
04/01:00am 9.5 W 12 23 1014.5 - 0.2 - - 10 - - - -
04/12:30am 9.3 W 12 21 1014.1 - 0.2 - - 10 - - - -
04/12:01am 9.4 W 15 26 1014.3 - 0.2 - - 10 - - - -
04/12:00am 9.4 W 15 26 1014.3 - 0.2 - - 10 - - - -
 
Date/Time
EST
Temp

°C
Wind Pressure Rain
since 9am
mm
Weather Cloud Vis
km
Sea
Height
m
Swell
Dir
 
Speed
knots
Gust
knots
hPa Trend Height
m
Period
s
Dir
03/11:30pm 9.5 W 11 21 1015.0 - 0.2 - - 10 - - - -
03/11:00pm 9.5 W 8 15 1015.2 - 0.2 - - 10 - - - -
03/10:30pm 9.2 WNW 9 13 1015.6 - 0.2 - - 10 - - - -
03/10:00pm 9.3 NW 8 14 1015.8 - 0.2 - - 10 - - - -
03/09:30pm 9.1 NW 10 16 1016.1 - 0.2 - - 10 - - - -
03/09:00pm 8.7 W 7 16 1016.1 - 0.2 - - 10 - - - -
03/08:30pm 8.4 WSW 7 11 1016.2 - 0.2 - - 10 - - - -
03/08:00pm 8.5 WSW 9 16 1016.5 - 0.2 - - 10 - - - -
03/07:30pm 8.5 W 8 14 1016.8 - 0.2 - - 10 - - - -
03/07:00pm 7.8 NW 6 10 1016.9 - 0.2 - - 10 - - - -
03/06:30pm 7.9 NW 6 13 1017.2 - 0.2 - - 10 - - - -
03/06:00pm 7.7 W 7 11 1017.5 - 0.2 - - 10 - - - -
03/05:30pm 7.8 WNW 7 13 1017.4 - 0.2 - - 10 - - - -
03/05:00pm 8.3 NNW 6 12 1017.6 - 0.2 - - 10 - - - -
03/04:30pm 8.9 W 7 13 1017.7 - 0.2 - - 10 - - - -
03/04:00pm 9.9 WNW 6 12 1017.8 - 0.2 - - 10 - - - -
03/03:30pm 10.7 WNW 8 13 1018.1 - 0.2 - - 10 - - - -
03/03:00pm 11.4 WNW 5 10 1018.2 - 0.2 - - 10 - - - -
03/02:30pm 11.2 W 6 11 1018.2 - 0.2 - - 10 - - - -
03/02:00pm 11.5 WNW 5 11 1018.8 - 0.2 - - 10 - - - -
03/01:30pm 11.9 WNW 6 11 1019.3 - 0.2 - - 10 - - - -
03/01:00pm 11.5 WNW 4 8 1019.9 - 0.2 - - 10 - - - -
03/12:30pm 11.5 W 4 8 1020.6 - 0.2 - - 10 - - - -
03/12:00pm 10.8 NW 7 11 1021.4 - 0.2 - - 10 - - - -
03/11:30am 9.0 NNW 6 7 1022.0 - 0.2 - - 10 - - - -
03/11:00am 7.7 NNW 6 7 1022.5 - 0.2 - - 10 - - - -
03/10:30am 6.5 WNW 3 5 1022.9 - 0.2 - - 10 - - - -
03/10:00am 4.1 NNW 7 8 1023.1 - 0.2 - - 10 - - - -
03/09:30am 2.3 NW 6 8 1023.3 - 0.0 - - 10 - - - -
03/09:00am 1.6 NW 7 10 1023.5 - 0.0 Fine Mostly clear 30 - - - -
03/08:30am 0.0 NW 8 10 1023.4 - 0.0 - - 10 - - - -
03/08:00am -0.3 NW 8 10 1023.6 - 0.0 - - 10 - - - -
03/07:30am 0.3 NW 7 8 1023.6 - 0.0 - - 10 - - - -
03/07:00am -0.2 WNW 5 7 1023.5 - 0.0 - - 10 - - - -
03/06:30am -0.4 NW 8 9 1023.2 - 0.0 - - 10 - - - -
03/06:00am -0.5 NNW 7 9 1023.2 - 0.0 - - 10 - - - -
03/05:30am -0.5 NW 6 7 1023.1 - 0.0 - - 10 - - - -
03/05:00am -0.6 NW 5 7 1023.1 - 0.0 - - 10 - - - -
03/04:30am -0.5 NNW 6 7 1022.9 - 0.0 - - 10 - - - -
03/04:00am 0.3 NW 8 10 1022.8 - 0.0 - - 10 - - - -

Other Formats:

Comma delimited format used in spreadsheet applications
http://www.bom.gov.au/fwo/IDT60701/IDT60701.95981.axf

JavaScript Object Notation format (JSON) in row-major order
http://www.bom.gov.au/fwo/IDT60701/IDT60701.95981.json